createdAt,value
2019-01-20T00:00:01.980Z,-3.67
2019-01-20T00:02:49.074Z,-3.68
2019-01-20T00:05:36.284Z,-3.04
2019-01-20T00:08:23.748Z,-2.80
2019-01-20T00:11:16.561Z,-3.30
2019-01-20T00:13:58.369Z,-3.42
2019-01-20T00:16:45.914Z,-3.49
2019-01-20T00:19:33.588Z,-3.53
2019-01-20T00:22:20.822Z,-3.58
2019-01-20T00:25:08.331Z,-3.64
2019-01-20T00:27:55.691Z,-3.68
2019-01-20T00:30:43.454Z,-3.72
2019-01-20T00:33:31.111Z,-3.75
2019-01-20T00:36:18.408Z,-3.15
2019-01-20T00:39:06.939Z,-3.58
2019-01-20T00:41:58.762Z,-3.01
2019-01-20T00:44:46.117Z,-3.51
2019-01-20T00:47:33.878Z,-3.64
2019-01-20T00:50:21.270Z,-3.02
2019-01-20T00:53:08.862Z,-3.52
2019-01-20T00:55:56.167Z,-3.66
2019-01-20T00:58:51.247Z,-3.76
2019-01-20T01:01:39.116Z,-3.85
2019-01-20T01:04:26.433Z,-3.92
2019-01-20T01:07:21.807Z,-3.33
2019-01-20T01:10:08.854Z,-3.11
2019-01-20T01:12:55.829Z,-3.68
2019-01-20T01:15:43.356Z,-3.82
2019-01-20T01:18:31.837Z,-3.91
2019-01-20T01:21:28.529Z,-4.00
2019-01-20T01:24:15.936Z,-4.07
2019-01-20T01:27:03.728Z,-4.17
2019-01-20T01:29:51.153Z,-4.26
2019-01-20T01:35:45.163Z,-4.38
2019-01-20T01:38:32.255Z,-4.41
2019-01-20T01:41:19.630Z,-4.43
2019-01-20T01:44:06.995Z,-4.44
2019-01-20T01:46:54.516Z,-4.45
2019-01-20T01:49:41.955Z,-4.47
2019-01-20T01:52:29.850Z,-4.52
2019-01-20T01:55:17.247Z,-4.56
2019-01-20T01:58:05.342Z,-4.62
2019-01-20T02:00:53.067Z,-4.65
2019-01-20T02:03:40.247Z,-4.69
2019-01-20T02:06:30.161Z,-4.72
2019-01-20T02:09:30.110Z,-4.76
2019-01-20T02:12:18.050Z,-4.79
2019-01-20T02:15:05.975Z,-4.82
2019-01-20T02:17:54.037Z,-4.86
2019-01-20T02:20:41.794Z,-4.89
2019-01-20T02:23:29.960Z,-4.91
2019-01-20T02:26:19.360Z,-4.93
2019-01-20T02:29:06.912Z,-4.94
2019-01-20T02:31:55.390Z,-4.36
2019-01-20T02:34:42.504Z,-4.09
2019-01-20T02:37:29.374Z,-4.61
2019-01-20T02:40:18.167Z,-4.72
2019-01-20T02:43:05.586Z,-4.09
2019-01-20T02:45:52.771Z,-4.58
2019-01-20T02:48:40.512Z,-4.71
2019-01-20T02:51:29.092Z,-4.79
2019-01-20T02:54:17.011Z,-4.84
2019-01-20T02:57:04.608Z,-4.89
2019-01-20T02:59:52.375Z,-4.94
2019-01-20T03:02:40.096Z,-5.00
2019-01-20T03:05:27.063Z,-5.04
2019-01-20T03:08:14.343Z,-4.42
2019-01-20T03:11:01.625Z,-4.18
2019-01-20T03:13:49.287Z,-4.71
2019-01-20T03:16:37.138Z,-4.85
2019-01-20T03:19:24.375Z,-4.93
2019-01-20T03:22:12.562Z,-4.31
2019-01-20T03:25:00.432Z,-4.76
2019-01-20T03:27:48.028Z,-4.86
2019-01-20T03:30:36.045Z,-4.92
2019-01-20T03:33:23.610Z,-4.94
2019-01-20T03:36:11.309Z,-4.98
2019-01-20T03:38:58.719Z,-5.01
2019-01-20T03:44:52.019Z,-5.08
2019-01-20T03:47:39.404Z,-5.07
2019-01-20T03:53:39.708Z,-4.16
2019-01-20T03:56:26.952Z,-4.00
2019-01-20T04:02:20.568Z,-4.02
2019-01-20T04:05:08.703Z,-4.60
2019-01-20T04:07:56.653Z,-4.78
2019-01-20T04:10:44.237Z,-4.89
2019-01-20T04:13:31.543Z,-4.98
2019-01-20T04:16:19.013Z,-5.05
2019-01-20T04:19:07.308Z,-5.11
2019-01-20T04:21:57.695Z,-5.18
2019-01-20T04:24:53.058Z,-5.23
2019-01-20T04:27:40.871Z,-4.61
2019-01-20T04:30:28.662Z,-5.07
2019-01-20T04:33:16.095Z,-5.17
2019-01-20T04:36:03.283Z,-5.24
2019-01-20T04:38:50.757Z,-5.29
2019-01-20T04:41:38.254Z,-5.34
2019-01-20T04:44:26.914Z,-5.40
2019-01-20T04:47:15.938Z,-5.44
2019-01-20T04:50:04.129Z,-5.48
2019-01-20T04:52:53.198Z,-5.52
2019-01-20T04:55:40.830Z,-5.56
2019-01-20T04:58:28.347Z,-5.60
2019-01-20T05:01:19.096Z,-5.62
2019-01-20T05:04:06.288Z,-5.65
2019-01-20T05:06:56.465Z,-5.67
2019-01-20T05:09:42.933Z,-5.69
2019-01-20T05:12:37.585Z,-5.72
2019-01-20T05:15:20.934Z,-5.74
2019-01-20T05:18:08.460Z,-5.76
2019-01-20T05:20:56.106Z,-5.77
2019-01-20T05:23:43.845Z,-5.79
2019-01-20T05:26:31.564Z,-5.82
2019-01-20T05:29:19.368Z,-5.85
2019-01-20T05:32:07.357Z,-5.87
2019-01-20T05:34:56.980Z,-5.90
2019-01-20T05:37:55.009Z,-5.91
2019-01-20T05:40:45.330Z,-5.92
2019-01-20T05:43:33.801Z,-5.94
2019-01-20T05:46:21.147Z,-5.98
2019-01-20T05:49:08.685Z,-6.00
2019-01-20T05:51:57.235Z,-6.02
2019-01-20T05:54:45.216Z,-6.05
2019-01-20T05:57:32.738Z,-6.07
2019-01-20T06:00:20.836Z,-6.10
2019-01-20T06:03:08.318Z,-6.10
2019-01-20T06:05:55.537Z,-5.50
2019-01-20T06:08:44.131Z,-5.90
2019-01-20T06:11:31.075Z,-5.98
2019-01-20T06:14:18.726Z,-6.02
2019-01-20T06:17:05.949Z,-6.06
2019-01-20T06:19:53.379Z,-6.09
2019-01-20T06:22:40.693Z,-6.10
2019-01-20T06:25:28.137Z,-5.48
2019-01-20T06:28:15.681Z,-5.88
2019-01-20T06:31:03.058Z,-5.98
2019-01-20T06:33:50.709Z,-6.02
2019-01-20T06:36:39.275Z,-5.40
2019-01-20T06:39:27.217Z,-5.84
2019-01-20T06:42:14.777Z,-5.95
2019-01-20T06:45:02.261Z,-6.01
2019-01-20T06:47:49.803Z,-6.05
2019-01-20T06:50:37.422Z,-5.44
2019-01-20T06:53:25.656Z,-5.90
2019-01-20T06:56:13.284Z,-5.28
2019-01-20T06:59:01.323Z,-5.77
2019-01-20T07:01:48.996Z,-5.18
2019-01-20T07:04:36.575Z,-5.68
2019-01-20T07:07:24.036Z,-5.80
2019-01-20T07:10:11.428Z,-5.87
2019-01-20T07:12:59.015Z,-5.22
2019-01-20T07:15:47.970Z,-5.68
2019-01-20T07:18:36.020Z,-5.06
2019-01-20T07:21:24.162Z,-5.54
2019-01-20T07:24:11.860Z,-5.62
2019-01-20T07:26:59.850Z,-5.63
2019-01-20T07:29:47.469Z,-5.64
2019-01-20T07:32:34.738Z,-5.64
2019-01-20T07:35:23.417Z,-5.60
2019-01-20T07:38:12.091Z,-5.57
2019-01-20T07:40:59.844Z,-4.85
2019-01-20T07:43:48.156Z,-5.22
2019-01-20T07:46:36.001Z,-5.25
2019-01-20T07:49:24.156Z,-4.49
2019-01-20T07:52:11.976Z,-4.89
2019-01-20T07:54:59.866Z,-4.91
2019-01-20T07:57:47.550Z,-4.86
2019-01-20T08:00:35.750Z,-4.06
2019-01-20T08:03:23.193Z,-4.46
2019-01-20T08:06:10.907Z,-4.47
2019-01-20T08:08:59.450Z,-4.43
2019-01-20T08:11:46.512Z,-4.36
2019-01-20T08:14:34.233Z,-4.29
2019-01-20T08:17:21.874Z,-4.22
2019-01-20T08:20:21.161Z,-4.16
2019-01-20T08:23:09.472Z,-4.08
2019-01-20T08:29:04.772Z,-3.91
2019-01-20T08:31:52.214Z,-3.83
2019-01-20T08:34:39.922Z,-3.75
2019-01-20T08:37:28.890Z,-2.87
2019-01-20T08:40:20.654Z,-3.27
2019-01-20T08:43:08.689Z,-3.25
2019-01-20T08:46:02.817Z,-3.17
2019-01-20T08:48:51.261Z,-3.09
2019-01-20T08:51:39.484Z,-2.98
2019-01-20T08:54:26.952Z,-2.88
2019-01-20T08:57:14.998Z,-2.79
2019-01-20T09:00:02.557Z,-2.67
2019-01-20T09:02:50.215Z,-2.61
2019-01-20T09:05:37.499Z,-2.55
2019-01-20T09:08:24.876Z,-2.49
2019-01-20T09:11:12.069Z,-2.39
2019-01-20T09:13:59.514Z,-2.25
2019-01-20T09:16:47.889Z,-2.15
2019-01-20T09:19:35.050Z,-2.06
2019-01-20T09:22:22.599Z,-1.11
2019-01-20T09:25:12.151Z,-1.54
2019-01-20T09:27:59.661Z,-1.52
2019-01-20T09:30:50.900Z,-1.42
2019-01-20T09:33:38.082Z,-1.32
2019-01-20T09:36:25.627Z,-1.23
2019-01-20T09:39:20.729Z,-1.12
2019-01-20T09:42:08.280Z,-1.02
2019-01-20T09:44:55.667Z,-0.93
2019-01-20T09:47:43.190Z,0.08
2019-01-20T09:50:30.390Z,-0.40
2019-01-20T09:53:17.977Z,-0.40
2019-01-20T09:56:05.487Z,-0.36
2019-01-20T09:58:52.820Z,-0.31
2019-01-20T10:01:40.489Z,-0.24
2019-01-20T10:04:27.728Z,-0.13
2019-01-20T10:07:15.171Z,-0.06
2019-01-20T10:10:02.616Z,0.04
2019-01-20T10:12:50.172Z,0.09
2019-01-20T10:15:37.545Z,0.12
2019-01-20T10:18:32.123Z,1.21
2019-01-20T10:21:22.325Z,0.59
2019-01-20T10:24:12.782Z,1.66
2019-01-20T10:27:00.313Z,1.02
2019-01-20T10:29:47.874Z,0.95
2019-01-20T10:32:35.599Z,0.89
2019-01-20T10:35:38.778Z,0.95
2019-01-20T10:38:26.101Z,0.93
2019-01-20T10:41:13.747Z,0.97
2019-01-20T10:44:02.403Z,2.06
2019-01-20T10:46:48.893Z,1.34
2019-01-20T10:49:44.454Z,1.29
2019-01-20T10:52:34.576Z,1.33
2019-01-20T10:55:22.052Z,1.34
2019-01-20T11:01:16.190Z,1.61
2019-01-20T11:04:08.718Z,2.66
2019-01-20T11:07:03.867Z,1.76
2019-01-20T11:09:52.783Z,1.63
2019-01-20T11:12:41.578Z,1.48
2019-01-20T11:15:29.077Z,2.60
2019-01-20T11:18:16.456Z,1.85
2019-01-20T11:24:17.868Z,1.70
2019-01-20T11:27:05.233Z,1.72
2019-01-20T11:29:52.647Z,2.74
2019-01-20T11:32:42.417Z,2.00
2019-01-20T11:35:28.555Z,1.80
2019-01-20T11:38:16.176Z,1.82
2019-01-20T11:41:03.608Z,1.94
2019-01-20T11:43:51.318Z,2.08
2019-01-20T11:46:38.802Z,2.05
2019-01-20T11:49:25.957Z,1.97
2019-01-20T11:52:13.647Z,1.95
2019-01-20T11:55:01.846Z,1.88
2019-01-20T11:57:54.152Z,1.86
2019-01-20T12:00:42.262Z,1.77
2019-01-20T12:03:38.616Z,1.69
2019-01-20T12:06:25.806Z,2.94
2019-01-20T12:09:13.311Z,3.31
2019-01-20T12:12:01.067Z,2.63
2019-01-20T12:14:50.464Z,3.57
2019-01-20T12:17:37.853Z,2.69
2019-01-20T12:20:25.319Z,3.60
2019-01-20T12:26:19.484Z,2.86
2019-01-20T12:29:06.662Z,2.73
2019-01-20T12:31:54.246Z,2.60
2019-01-20T12:34:42.111Z,2.46
2019-01-20T12:37:29.352Z,2.42
2019-01-20T12:40:41.334Z,2.44
2019-01-20T12:43:29.578Z,2.30
2019-01-20T12:46:17.905Z,3.42
2019-01-20T12:49:05.535Z,2.58
2019-01-20T12:51:53.254Z,2.37
2019-01-20T12:54:40.550Z,2.34
2019-01-20T12:57:27.900Z,2.39
2019-01-20T13:00:18.037Z,2.41
2019-01-20T13:03:05.576Z,2.35
2019-01-20T13:05:52.912Z,2.40
2019-01-20T13:08:40.519Z,2.44
2019-01-20T13:11:28.617Z,2.39
2019-01-20T13:17:22.228Z,2.35
2019-01-20T13:20:09.790Z,2.31
2019-01-20T13:22:57.699Z,2.30
2019-01-20T13:25:46.324Z,2.32
2019-01-20T13:28:33.727Z,2.24
2019-01-20T13:31:21.093Z,2.20
2019-01-20T13:34:08.525Z,2.19
2019-01-20T13:36:58.005Z,2.15
2019-01-20T13:39:45.172Z,2.12
2019-01-20T13:42:34.999Z,3.13
2019-01-20T13:45:23.302Z,2.44
2019-01-20T13:48:13.357Z,2.20
2019-01-20T13:51:02.146Z,2.04
2019-01-20T13:53:49.173Z,1.91
2019-01-20T13:56:36.552Z,1.86
2019-01-20T13:59:24.153Z,1.84
2019-01-20T14:02:11.540Z,1.77
2019-01-20T14:04:59.019Z,1.73
2019-01-20T14:07:46.763Z,1.67
2019-01-20T14:10:34.473Z,1.62
2019-01-20T14:13:22.038Z,1.61
2019-01-20T14:16:09.680Z,1.52
2019-01-20T14:19:07.358Z,1.52
2019-01-20T14:21:55.424Z,1.55
2019-01-20T14:24:44.914Z,1.51
2019-01-20T14:27:33.283Z,2.43
2019-01-20T14:30:20.906Z,1.72
2019-01-20T14:33:11.868Z,1.62
2019-01-20T14:36:00.530Z,1.55
2019-01-20T14:38:49.224Z,1.50
2019-01-20T14:41:36.659Z,1.46
2019-01-20T14:44:23.861Z,1.39
2019-01-20T14:47:11.572Z,1.27
2019-01-20T14:50:00.436Z,1.14
2019-01-20T14:52:47.646Z,1.05
2019-01-20T14:55:36.075Z,1.01
2019-01-20T14:58:23.064Z,1.82
2019-01-20T15:01:10.744Z,1.21
2019-01-20T15:03:59.226Z,1.06
2019-01-20T15:06:47.110Z,0.96
2019-01-20T15:09:34.462Z,0.86
2019-01-20T15:12:21.784Z,1.55
2019-01-20T15:15:09.711Z,1.70
2019-01-20T15:17:57.645Z,0.96
2019-01-20T15:20:45.942Z,0.72
2019-01-20T15:23:33.300Z,1.35
2019-01-20T15:26:24.142Z,0.67
2019-01-20T15:29:09.042Z,0.43
2019-01-20T15:31:58.588Z,0.26
2019-01-20T15:34:46.352Z,0.12
2019-01-20T15:37:35.430Z,-0.01
2019-01-20T15:43:37.846Z,-0.32
2019-01-20T15:46:34.199Z,-0.44
2019-01-20T15:49:31.983Z,-0.53
2019-01-20T15:52:24.096Z,-0.64
2019-01-20T15:55:12.668Z,-0.74
2019-01-20T15:57:59.828Z,-0.82
2019-01-20T16:00:51.904Z,-0.16
2019-01-20T16:03:40.204Z,-0.72
2019-01-20T16:06:36.198Z,-0.87
2019-01-20T16:09:29.208Z,-0.97
2019-01-20T16:12:19.519Z,-1.07
2019-01-20T16:18:19.272Z,-1.27
2019-01-20T16:21:10.925Z,-1.35
2019-01-20T16:24:00.440Z,-1.43
2019-01-20T16:26:47.565Z,-1.50
2019-01-20T16:29:36.630Z,-1.56
2019-01-20T16:32:26.347Z,-0.91
2019-01-20T16:35:16.330Z,-1.41
2019-01-20T16:38:05.811Z,-1.53
2019-01-20T16:40:55.655Z,-1.63
2019-01-20T16:43:47.417Z,-0.97
2019-01-20T16:46:37.695Z,-1.50
2019-01-20T16:49:27.858Z,-1.65
2019-01-20T17:14:08.181Z,-2.15
2019-01-20T17:16:55.025Z,-2.22
2019-01-20T17:19:57.974Z,-2.28
2019-01-20T17:22:55.536Z,-1.58
2019-01-20T17:25:42.844Z,-2.15
2019-01-20T17:28:30.879Z,-2.29
2019-01-20T17:34:26.684Z,-2.49
2019-01-20T17:37:14.470Z,-2.55
2019-01-20T17:40:03.309Z,-2.62
2019-01-20T17:42:57.157Z,-2.70
2019-01-20T17:45:53.298Z,-2.76
2019-01-20T17:48:42.768Z,-2.81
2019-01-20T17:51:30.021Z,-2.87
2019-01-20T17:54:19.174Z,-2.95
2019-01-20T17:57:06.981Z,-3.00
2019-01-20T18:02:59.837Z,-3.10
2019-01-20T18:05:49.894Z,-3.12
2019-01-20T18:08:45.969Z,-3.16
2019-01-20T18:11:33.308Z,-3.19
2019-01-20T18:14:20.777Z,-3.23
2019-01-20T18:17:07.660Z,-3.25
2019-01-20T18:19:55.155Z,-2.60
2019-01-20T18:22:42.841Z,-3.07
2019-01-20T18:25:32.145Z,-3.19
2019-01-20T18:28:20.653Z,-2.54
2019-01-20T18:31:08.588Z,-3.06
2019-01-20T18:33:55.947Z,-2.46
2019-01-20T18:36:43.180Z,-2.99
2019-01-20T18:39:33.108Z,-3.12
2019-01-20T18:42:20.473Z,-3.23
2019-01-20T18:45:23.412Z,-3.30
2019-01-20T18:51:17.203Z,-3.43
2019-01-20T18:54:04.792Z,-3.47
2019-01-20T18:56:54.923Z,-2.82
2019-01-20T18:59:42.116Z,-2.60
2019-01-20T19:02:45.565Z,-3.20
2019-01-20T19:08:47.063Z,-3.50
2019-01-20T19:11:34.699Z,-3.59
2019-01-20T19:17:28.066Z,-3.73
2019-01-20T19:29:52.443Z,-2.81
2019-01-20T19:32:40.019Z,-3.45
2019-01-20T19:35:28.302Z,-3.60
2019-01-20T19:38:14.431Z,-3.71
2019-01-20T19:41:01.766Z,-3.79
2019-01-20T19:43:49.609Z,-3.87
2019-01-20T19:46:37.248Z,-3.95
2019-01-20T19:49:25.050Z,-4.01
2019-01-20T19:52:18.753Z,-3.38
2019-01-20T19:55:10.057Z,-3.89
2019-01-20T20:01:03.329Z,-4.12
2019-01-20T20:03:51.461Z,-4.17
2019-01-20T20:06:48.575Z,-4.24
2019-01-20T20:09:38.866Z,-3.56
2019-01-20T20:12:32.592Z,-4.08
2019-01-20T20:25:01.518Z,-4.44
2019-01-20T20:27:50.654Z,-4.49
2019-01-20T20:30:49.977Z,-4.53
2019-01-20T20:33:37.581Z,-4.57
2019-01-20T20:36:26.341Z,-4.60
2019-01-20T20:39:19.821Z,-4.63
2019-01-20T20:42:08.697Z,-4.66
2019-01-20T20:45:00.838Z,-4.68
2019-01-20T20:47:51.925Z,-4.71
2019-01-20T20:50:41.505Z,-4.04
2019-01-20T20:56:44.718Z,-4.64
2019-01-20T20:59:34.009Z,-4.70
2019-01-20T21:02:24.812Z,-4.74
2019-01-20T21:05:15.405Z,-4.79
2019-01-20T21:08:03.766Z,-4.83
2019-01-20T21:10:52.269Z,-4.85
2019-01-20T21:13:39.646Z,-4.88
2019-01-20T21:16:28.041Z,-4.91
2019-01-20T21:19:15.118Z,-4.94
2019-01-20T21:22:03.050Z,-4.95
2019-01-20T21:25:00.803Z,-4.98
2019-01-20T21:27:48.258Z,-5.01
2019-01-20T21:30:36.538Z,-5.04
2019-01-20T21:33:24.400Z,-5.08
2019-01-20T21:36:19.837Z,-5.13
2019-01-20T21:39:07.955Z,-5.18
2019-01-20T21:41:55.401Z,-5.21
2019-01-20T21:44:43.853Z,-5.24
2019-01-20T21:47:31.268Z,-5.26
2019-01-20T21:50:19.715Z,-5.28
2019-01-20T21:53:06.845Z,-5.30
2019-01-20T21:55:53.779Z,-5.31
2019-01-20T21:58:41.653Z,-5.35
2019-01-20T22:01:29.389Z,-5.38
2019-01-20T22:04:17.168Z,-5.40
2019-01-20T22:07:04.555Z,-4.78
2019-01-20T22:12:58.606Z,-5.33
2019-01-20T22:15:45.705Z,-5.38
2019-01-20T22:18:32.959Z,-5.41
2019-01-20T22:21:21.223Z,-4.77
2019-01-20T22:27:14.381Z,-5.31
2019-01-20T22:30:03.019Z,-5.37
2019-01-20T22:32:51.581Z,-5.42
2019-01-20T22:35:39.816Z,-5.48
2019-01-20T22:38:28.734Z,-5.54
2019-01-20T22:44:22.576Z,-5.60
2019-01-20T22:50:23.483Z,-5.38
2019-01-20T22:53:10.687Z,-4.74
2019-01-20T22:55:58.175Z,-4.52
2019-01-20T22:58:47.936Z,-4.38
2019-01-20T23:04:41.540Z,-5.19
2019-01-20T23:07:29.384Z,-5.29
2019-01-20T23:13:23.118Z,-4.73
2019-01-20T23:16:23.030Z,-5.28
2019-01-20T23:22:19.284Z,-4.69
2019-01-20T23:25:06.941Z,-5.17
2019-01-20T23:27:55.328Z,-5.27
2019-01-20T23:33:49.321Z,-5.31
2019-01-20T23:36:36.916Z,-5.33
2019-01-20T23:39:24.713Z,-5.36
2019-01-20T23:42:12.089Z,-5.37
2019-01-20T23:45:01.016Z,-5.39
2019-01-20T23:50:54.851Z,-5.40
2019-01-20T23:53:42.021Z,-4.75
2019-01-20T23:56:29.608Z,-5.17
2019-01-20T23:59:17.530Z,-5.25
